Hlavní strana
METAR-TAF:

METAR-TAF

Letiště :

Fort-de-France, Martinik

zeměpisná šířka: 14-36N, zeměpisná délka: 061-00W, výška: 5 m

Aktuální stav počasí

Zpráva byla vytvořena před 30 minutami, v 18:00 UTC
Východní vítr 15 kt
Teplota 29°C
Vlhkost vzduchu 62%
Tlak 1013 hPa
Viditelnost 10 km a více

METAR: TFFF 211800Z AUTO 10015KT 9999 BKN030/// BKN042/// BKN050/// 29/21 Q1013 BECMG 09015G25KT

Čas: 14:30 (18:30 UTC)

Předpověď počasí

Zpráva byla vytvořena před 1 hodinou a 30 minutami, v 17:00 UTC
Předpověď platná od 21 v 18 UTC do 22 v 18 UTC
Východní vítr 15 kt s nárazy do 25 kt
Viditelnost 10 km a více
Polojasno ve výšce 3000 ft
Polojasno ve výšce 4000 ft
Pravděpodobnost 30% :
Dočasný
od 22 v 03 UTC do 22 v 15 UTC
Viditelnost: 4000 m
Polojasno ve výšce 1800 ft, Vertikální cumulus.
dešťové přeháňky

TAF: TFFF 211700Z 2118/2218 09015G25KT 9999 SCT030 SCT040 PROB30 TEMPO 2203/2215 4000 SHRA SCT018TCU

Stav a předpovědi počasí z více než 4 000 letišť (zprávy METAR a TAF).

Červené a žluté tečky na mapě představují dostupné meteorologické stanice.

Když kurzor umístíte na tečku, zobrazí se název stanice.

Pak kliknutím zobrazíte stav a předpověď počasí.

Chcete-li změnit mapu, kliknutím na zelené tlačítko se znaménkem +mapu přiblížíte, kliknutím na zelené tlačítko se znaménkem – mapu oddálíte a kliknutím na zelené šipky přejdete na sousední mapy.


METAR-TAF: